createdAt,value
2024-05-09T00:01:13.843Z,37.25
2024-05-09T00:03:43.969Z,36.60
2024-05-09T00:06:16.500Z,38.11
2024-05-09T00:08:46.468Z,38.54
2024-05-09T00:11:16.946Z,39.29
2024-05-09T00:13:46.351Z,40.46
2024-05-09T00:16:15.681Z,39.05
2024-05-09T00:18:44.975Z,38.76
2024-05-09T00:21:16.907Z,38.25
2024-05-09T00:23:46.154Z,37.17
2024-05-09T00:26:18.115Z,37.14
2024-05-09T00:28:47.428Z,36.38
2024-05-09T00:31:16.743Z,37.59
2024-05-09T00:33:46.061Z,37.66
2024-05-09T00:36:18.059Z,38.66
2024-05-09T00:38:47.683Z,39.31
2024-05-09T00:41:19.746Z,39.22
2024-05-09T00:43:49.361Z,37.96
2024-05-09T00:46:18.762Z,38.47
2024-05-09T00:48:48.129Z,37.48
2024-05-09T00:51:20.403Z,37.51
2024-05-09T00:53:50.158Z,40.39
2024-05-09T00:56:19.814Z,39.17
2024-05-09T00:58:49.889Z,39.54
2024-05-09T01:01:23.460Z,39.06
2024-05-09T01:03:53.375Z,40.73
2024-05-09T01:06:25.345Z,39.48
2024-05-09T01:08:54.711Z,40.59
2024-05-09T01:11:24.005Z,41.76
2024-05-09T01:13:53.352Z,38.95
2024-05-09T01:16:22.625Z,40.17
2024-05-09T01:18:52.007Z,39.51
2024-05-09T01:21:21.540Z,39.38
2024-05-09T01:23:53.461Z,40.46
2024-05-09T01:26:22.737Z,38.90
2024-05-09T01:28:52.028Z,38.19
2024-05-09T01:31:21.307Z,38.43
2024-05-09T01:33:50.615Z,38.28
2024-05-09T01:36:21.144Z,38.07
2024-05-09T01:38:52.946Z,38.14
2024-05-09T01:41:22.262Z,38.07
2024-05-09T01:43:51.469Z,37.63
2024-05-09T01:46:20.803Z,39.70
2024-05-09T01:48:50.091Z,38.75
2024-05-09T01:51:19.401Z,38.60
2024-05-09T01:53:48.634Z,40.23
2024-05-09T01:56:20.455Z,40.75
2024-05-09T01:58:49.674Z,42.11
2024-05-09T02:01:18.986Z,43.53
2024-05-09T02:03:49.325Z,41.75
2024-05-09T02:06:18.715Z,42.35
2024-05-09T02:08:48.646Z,40.31
2024-05-09T02:11:20.506Z,40.11
2024-05-09T02:13:49.738Z,38.41
2024-05-09T02:16:18.943Z,38.63
2024-05-09T02:18:48.186Z,38.33
2024-05-09T02:21:17.586Z,38.27
2024-05-09T02:23:46.826Z,38.01
2024-05-09T02:26:16.295Z,37.75
2024-05-09T02:28:48.096Z,39.52
2024-05-09T02:31:17.474Z,39.45
2024-05-09T02:33:44.311Z,39.38
2024-05-09T02:36:13.780Z,41.30
2024-05-09T02:38:40.455Z,40.59
2024-05-09T02:41:09.708Z,41.45
2024-05-09T02:43:36.366Z,40.95
2024-05-09T02:46:09.488Z,43.81
2024-05-09T02:48:36.307Z,43.19
2024-05-09T02:51:05.762Z,40.54
2024-05-09T02:53:32.621Z,39.80
2024-05-09T02:56:02.171Z,40.39
2024-05-09T02:58:28.814Z,40.81
2024-05-09T03:00:58.122Z,39.97
2024-05-09T03:03:27.720Z,39.10
2024-05-09T03:05:57.019Z,40.21
2024-05-09T03:08:23.749Z,40.41
2024-05-09T03:10:53.157Z,39.60
2024-05-09T03:13:19.817Z,39.57
2024-05-09T03:15:49.173Z,39.48
2024-05-09T03:18:18.553Z,41.81
2024-05-09T03:20:47.939Z,41.56
2024-05-09T03:23:17.459Z,42.83
2024-05-09T03:25:44.165Z,43.27
2024-05-09T03:28:13.903Z,41.29
2024-05-09T03:30:42.912Z,44.57
2024-05-09T03:33:15.210Z,41.14
2024-05-09T03:35:43.011Z,41.03
2024-05-09T03:38:15.006Z,41.20
2024-05-09T03:40:49.602Z,40.34
2024-05-09T03:43:20.549Z,39.98
2024-05-09T03:45:51.626Z,41.94
2024-05-09T03:48:18.544Z,40.69
2024-05-09T03:50:48.489Z,41.22
2024-05-09T03:53:17.887Z,40.54
2024-05-09T03:55:47.199Z,39.58
2024-05-09T03:58:14.582Z,40.13
2024-05-09T04:00:44.592Z,41.73
2024-05-09T04:03:12.835Z,41.84
2024-05-09T04:05:43.881Z,40.14
2024-05-09T04:08:11.581Z,39.54
2024-05-09T04:10:43.954Z,39.84
2024-05-09T04:13:11.073Z,41.62
2024-05-09T04:15:40.461Z,39.05
2024-05-09T04:18:07.434Z,37.15
2024-05-09T04:20:39.768Z,38.07
2024-05-09T04:23:10.759Z,39.15
2024-05-09T04:25:45.055Z,39.12
2024-05-09T04:28:12.618Z,38.54
2024-05-09T04:30:42.609Z,39.13
2024-05-09T04:33:12.304Z,39.13
2024-05-09T04:35:44.691Z,39.42
2024-05-09T04:38:12.240Z,39.16
2024-05-09T04:40:44.217Z,39.23
2024-05-09T04:43:14.676Z,40.18
2024-05-09T04:45:44.402Z,39.02
2024-05-09T04:48:11.582Z,38.59
2024-05-09T04:50:41.132Z,38.87
2024-05-09T04:53:10.181Z,39.27
2024-05-09T04:55:40.804Z,39.02
2024-05-09T04:58:13.836Z,40.06
2024-05-09T05:00:41.545Z,39.88
2024-05-09T05:03:15.004Z,40.07
2024-05-09T05:05:44.586Z,39.30
2024-05-09T05:08:15.682Z,39.85
2024-05-09T05:10:43.674Z,39.32
2024-05-09T05:13:20.796Z,39.97
2024-05-09T05:15:53.181Z,39.75
2024-05-09T05:18:20.267Z,39.62
2024-05-09T05:20:50.012Z,38.40
2024-05-09T05:23:19.695Z,39.50
2024-05-09T05:25:51.029Z,40.13
2024-05-09T05:28:20.645Z,39.67
2024-05-09T05:30:50.249Z,39.16
2024-05-09T05:33:18.786Z,39.70
2024-05-09T05:35:48.555Z,38.39
2024-05-09T05:38:17.986Z,40.43
2024-05-09T05:40:44.820Z,39.71
2024-05-09T05:43:19.167Z,36.39
2024-05-09T05:45:48.467Z,37.33
2024-05-09T05:48:21.105Z,36.83
2024-05-09T05:50:47.963Z,37.79
2024-05-09T05:53:17.334Z,37.22
2024-05-09T05:55:43.995Z,36.49
2024-05-09T05:58:14.760Z,36.63
2024-05-09T06:00:42.578Z,34.68
2024-05-09T06:03:15.265Z,35.10
2024-05-09T06:05:43.945Z,35.86
2024-05-09T06:08:14.674Z,36.06
2024-05-09T06:10:42.440Z,36.64
2024-05-09T06:13:12.468Z,36.60
2024-05-09T06:18:10.968Z,38.14
2024-05-09T06:20:43.338Z,36.56
2024-05-09T06:23:13.659Z,37.43
2024-05-09T06:25:40.711Z,37.25
2024-05-09T06:28:10.012Z,36.44
2024-05-09T06:30:40.457Z,36.89
2024-05-09T06:33:14.697Z,35.40
2024-05-09T06:35:46.313Z,37.33
2024-05-09T06:38:15.954Z,35.63
2024-05-09T06:40:44.052Z,37.56
2024-05-09T06:43:15.396Z,37.96
2024-05-09T06:45:43.730Z,37.86
2024-05-09T06:48:13.952Z,37.66
2024-05-09T06:50:41.275Z,36.50
2024-05-09T06:53:13.310Z,37.84
2024-05-09T06:55:40.436Z,37.82
2024-05-09T06:58:10.949Z,38.56
2024-05-09T07:00:40.222Z,39.15
2024-05-09T07:03:12.648Z,36.78
2024-05-09T07:05:40.876Z,36.72
2024-05-09T07:08:13.363Z,37.60
2024-05-09T07:10:40.134Z,38.18
2024-05-09T07:13:11.039Z,37.72
2024-05-09T07:15:38.013Z,37.61
2024-05-09T07:18:15.554Z,37.46
2024-05-09T07:20:43.063Z,36.75
2024-05-09T07:23:15.729Z,35.34
2024-05-09T07:25:43.130Z,34.22
2024-05-09T07:28:16.773Z,35.09
2024-05-09T07:30:44.166Z,34.36
2024-05-09T07:33:19.187Z,34.68
2024-05-09T07:35:46.523Z,33.61
2024-05-09T07:38:18.620Z,33.38
2024-05-09T07:40:45.585Z,34.61
2024-05-09T07:43:15.873Z,34.08
2024-05-09T07:45:51.123Z,35.49
2024-05-09T07:52:37.297Z,34.31
2024-05-09T07:53:49.923Z,34.66
2024-05-09T07:56:21.991Z,35.50
2024-05-09T07:58:53.650Z,36.71
2024-05-09T08:01:21.273Z,35.85
2024-05-09T08:03:50.905Z,34.81
2024-05-09T08:06:17.867Z,35.75
2024-05-09T08:08:50.781Z,32.73
2024-05-09T08:11:17.579Z,33.45
2024-05-09T08:13:46.810Z,33.77
2024-05-09T08:16:14.280Z,32.52
2024-05-09T08:18:43.777Z,33.09
2024-05-09T08:21:10.504Z,32.86
2024-05-09T08:23:39.759Z,33.61
2024-05-09T08:26:09.100Z,33.80
2024-05-09T08:28:38.341Z,32.70
2024-05-09T08:31:06.975Z,33.34
2024-05-09T08:33:37.059Z,33.21
2024-05-09T08:36:04.238Z,32.87
2024-05-09T08:38:33.434Z,33.85
2024-05-09T08:41:03.291Z,34.42
2024-05-09T08:43:36.177Z,32.32
2024-05-09T08:46:06.258Z,32.12
2024-05-09T08:48:39.241Z,31.39
2024-05-09T08:51:06.517Z,31.36
2024-05-09T08:53:35.947Z,30.80
2024-05-09T08:56:02.804Z,30.80
2024-05-09T08:58:35.170Z,31.54
2024-05-09T09:01:04.022Z,31.98
2024-05-09T09:03:35.909Z,31.41
2024-05-09T09:06:06.197Z,31.08
2024-05-09T09:08:35.809Z,30.77
2024-05-09T09:11:03.020Z,30.67
2024-05-09T09:13:34.984Z,30.41
2024-05-09T09:16:02.896Z,30.46
2024-05-09T09:18:33.165Z,29.67
2024-05-09T09:21:00.241Z,28.73
2024-05-09T09:23:30.637Z,29.94
2024-05-09T09:25:58.677Z,28.65
2024-05-09T09:28:28.102Z,31.19
2024-05-09T09:31:01.722Z,27.88
2024-05-09T09:33:32.061Z,28.63
2024-05-09T09:35:59.075Z,28.55
2024-05-09T09:38:33.234Z,28.72
2024-05-09T09:41:05.191Z,28.39
2024-05-09T09:43:35.509Z,28.53
2024-05-09T09:46:08.702Z,29.57
2024-05-09T09:48:41.250Z,28.75
2024-05-09T09:51:08.438Z,28.87
2024-05-09T09:53:39.989Z,29.74
2024-05-09T09:56:08.393Z,29.17
2024-05-09T09:58:38.806Z,28.46
2024-05-09T10:01:08.109Z,28.84
2024-05-09T10:03:37.610Z,28.85
2024-05-09T10:06:05.458Z,28.54
2024-05-09T10:08:34.893Z,30.71
2024-05-09T10:11:03.797Z,29.76
2024-05-09T10:13:37.023Z,27.58
2024-05-09T10:16:11.221Z,27.77
2024-05-09T10:18:41.666Z,27.52
2024-05-09T10:21:18.111Z,27.19
2024-05-09T10:23:59.348Z,27.35
2024-05-09T10:26:33.265Z,26.94
2024-05-09T10:29:03.530Z,29.89
2024-05-09T10:31:33.670Z,27.90
2024-05-09T10:34:03.625Z,28.50
2024-05-09T10:36:30.439Z,27.70
2024-05-09T10:38:59.692Z,28.21
2024-05-09T10:41:26.396Z,27.64
2024-05-09T10:43:55.615Z,27.90
2024-05-09T10:46:22.540Z,28.44
2024-05-09T10:48:54.722Z,29.82
2024-05-09T10:51:21.601Z,28.90
2024-05-09T10:53:52.532Z,27.71
2024-05-09T10:56:19.304Z,27.86
2024-05-09T10:58:48.525Z,28.08
2024-05-09T11:01:16.714Z,27.59
2024-05-09T11:03:49.771Z,28.54
2024-05-09T11:06:19.171Z,28.23
2024-05-09T11:08:49.110Z,27.74
2024-05-09T11:11:16.354Z,29.38
2024-05-09T11:13:45.651Z,30.07
2024-05-09T11:16:19.390Z,28.96
2024-05-09T11:18:56.580Z,30.31
2024-05-09T11:21:26.126Z,29.73
2024-05-09T11:23:55.613Z,28.90
2024-05-09T11:26:22.738Z,29.29
2024-05-09T11:28:52.638Z,27.96
2024-05-09T11:31:19.760Z,27.91
2024-05-09T11:33:49.348Z,28.09
2024-05-09T11:36:16.647Z,27.15
2024-05-09T11:38:48.503Z,28.59
2024-05-09T11:41:17.250Z,28.09
2024-05-09T11:43:46.589Z,27.96
2024-05-09T11:46:13.729Z,28.55
2024-05-09T11:48:43.392Z,28.48
2024-05-09T11:51:10.259Z,28.25
2024-05-09T11:53:39.481Z,28.15
2024-05-09T11:56:10.058Z,29.11
2024-05-09T11:58:39.580Z,28.00
2024-05-09T12:01:06.407Z,28.99
2024-05-09T12:03:38.015Z,28.85
2024-05-09T12:06:05.317Z,26.65
2024-05-09T12:08:34.757Z,27.57
2024-05-09T12:11:01.783Z,27.36
2024-05-09T12:13:33.667Z,26.66
2024-05-09T12:16:01.093Z,27.79
2024-05-09T12:18:30.464Z,28.70
2024-05-09T12:20:57.159Z,28.35
2024-05-09T12:23:26.368Z,29.27
2024-05-09T12:25:53.259Z,28.39
2024-05-09T12:28:23.360Z,28.61
2024-05-09T12:30:52.748Z,28.44
2024-05-09T12:33:22.444Z,29.49
2024-05-09T12:35:50.984Z,28.50
2024-05-09T12:38:20.906Z,28.66
2024-05-09T12:40:47.596Z,29.30
2024-05-09T12:43:16.980Z,28.21
2024-05-09T12:45:43.762Z,27.65
2024-05-09T12:48:15.799Z,27.85
2024-05-09T12:50:43.125Z,28.59
2024-05-09T12:53:12.659Z,27.56
2024-05-09T12:55:47.962Z,27.49
2024-05-09T12:58:24.182Z,28.20
2024-05-09T13:00:51.840Z,27.07
2024-05-09T13:03:24.241Z,27.02
2024-05-09T13:05:51.781Z,27.55
2024-05-09T13:08:22.137Z,28.95
2024-05-09T13:10:50.193Z,27.23
2024-05-09T13:13:19.868Z,26.74
2024-05-09T13:15:46.933Z,26.95
2024-05-09T13:18:16.657Z,27.53
2024-05-09T13:20:46.022Z,29.21
2024-05-09T13:23:15.277Z,28.00
2024-05-09T13:25:42.011Z,26.74
2024-05-09T13:28:11.447Z,26.66
2024-05-09T13:30:41.141Z,25.95
2024-05-09T13:33:12.976Z,26.58
2024-05-09T13:35:46.696Z,26.74
2024-05-09T13:38:22.392Z,27.21
2024-05-09T13:40:50.224Z,27.93
2024-05-09T13:43:21.807Z,26.97
2024-05-09T13:45:49.017Z,27.39
2024-05-09T13:48:19.654Z,27.15
2024-05-09T13:50:46.950Z,28.00
2024-05-09T13:53:16.319Z,27.55
2024-05-09T13:55:45.784Z,26.25
2024-05-09T13:58:15.461Z,27.13
2024-05-09T14:00:47.135Z,29.67
2024-05-09T14:03:20.311Z,29.55
2024-05-09T14:05:49.346Z,29.49
2024-05-09T14:08:20.094Z,28.81
2024-05-09T14:10:50.289Z,27.90
2024-05-09T14:13:20.118Z,27.17
2024-05-09T14:15:47.080Z,28.54
2024-05-09T14:18:16.657Z,27.87
2024-05-09T14:20:43.588Z,27.08
2024-05-09T14:23:13.026Z,27.32
2024-05-09T14:25:42.839Z,27.37
2024-05-09T14:28:15.845Z,26.60
2024-05-09T14:30:43.028Z,26.83
2024-05-09T14:33:12.586Z,27.47
2024-05-09T14:35:39.569Z,27.65
2024-05-09T14:38:09.936Z,27.58
2024-05-09T14:40:41.979Z,27.79
2024-05-09T14:43:16.595Z,28.56
2024-05-09T14:45:43.996Z,27.47
2024-05-09T14:48:14.804Z,26.33
2024-05-09T14:50:42.362Z,28.17
2024-05-09T14:53:13.541Z,27.95
2024-05-09T14:55:42.468Z,27.73
2024-05-09T14:58:13.673Z,26.84
2024-05-09T15:00:49.834Z,26.64
2024-05-09T15:03:21.572Z,26.87
2024-05-09T15:05:49.186Z,27.99
2024-05-09T15:08:19.763Z,27.33
2024-05-09T15:10:47.121Z,27.04
2024-05-09T15:13:17.330Z,27.02
2024-05-09T15:15:47.094Z,27.03
2024-05-09T15:18:16.919Z,26.17
2024-05-09T15:20:44.756Z,27.27
2024-05-09T15:23:14.203Z,26.96
2024-05-09T15:25:41.030Z,27.23
2024-05-09T15:28:10.397Z,27.40
2024-05-09T15:30:37.778Z,27.21
2024-05-09T15:33:09.984Z,27.78
2024-05-09T15:35:41.132Z,26.85
2024-05-09T15:38:11.278Z,27.25
2024-05-09T15:40:40.467Z,27.10
2024-05-09T15:43:11.874Z,27.66
2024-05-09T15:45:39.202Z,26.70
2024-05-09T15:48:12.573Z,27.51
2024-05-09T15:50:41.639Z,28.23
2024-05-09T15:53:13.211Z,28.44
2024-05-09T15:55:40.680Z,28.57
2024-05-09T15:58:10.457Z,27.80
2024-05-09T16:00:41.051Z,28.71
2024-05-09T16:03:15.996Z,27.97
2024-05-09T16:05:43.904Z,27.55
2024-05-09T16:08:14.409Z,28.44
2024-05-09T16:10:44.475Z,27.65
2024-05-09T16:13:14.998Z,27.78
2024-05-09T16:15:43.003Z,27.65
2024-05-09T16:18:15.205Z,28.63
2024-05-09T16:20:43.548Z,28.51
2024-05-09T16:23:14.392Z,28.64
2024-05-09T16:25:42.918Z,29.13
2024-05-09T16:28:12.208Z,28.42
2024-05-09T16:30:39.733Z,27.84
2024-05-09T16:33:10.823Z,28.08
2024-05-09T16:35:40.644Z,28.42
2024-05-09T16:38:10.101Z,27.94
2024-05-09T16:40:40.192Z,28.03
2024-05-09T16:43:11.344Z,28.31
2024-05-09T16:45:40.276Z,28.31
2024-05-09T16:48:11.226Z,28.53
2024-05-09T16:50:40.647Z,29.18
2024-05-09T16:53:09.916Z,29.54
2024-05-09T16:55:36.855Z,28.52
2024-05-09T16:58:08.045Z,28.69
2024-05-09T17:00:40.853Z,28.44
2024-05-09T17:03:16.507Z,27.92
2024-05-09T17:05:47.439Z,28.94
2024-05-09T17:08:18.525Z,29.04
2024-05-09T17:10:46.105Z,28.59
2024-05-09T17:13:15.550Z,28.01
2024-05-09T17:15:44.959Z,28.86
2024-05-09T17:18:11.820Z,29.42
2024-05-09T17:20:41.099Z,29.63
2024-05-09T17:23:13.930Z,30.07
2024-05-09T17:25:44.092Z,28.75
2024-05-09T17:28:11.604Z,29.36
2024-05-09T17:30:42.367Z,29.32
2024-05-09T17:33:11.037Z,29.54
2024-05-09T17:35:41.363Z,29.70
2024-05-09T17:38:10.641Z,29.70
2024-05-09T17:40:40.261Z,29.61
2024-05-09T17:43:08.961Z,29.64
2024-05-09T17:45:40.990Z,29.62
2024-05-09T17:48:10.228Z,29.95
2024-05-09T17:50:41.251Z,29.60
2024-05-09T17:53:11.484Z,30.50
2024-05-09T17:55:42.660Z,29.74
2024-05-09T17:58:10.349Z,29.81
2024-05-09T18:00:42.075Z,30.09
2024-05-09T18:03:12.030Z,29.85
2024-05-09T18:05:43.801Z,28.92
2024-05-09T18:08:14.066Z,29.67
2024-05-09T18:10:44.372Z,29.73
2024-05-09T18:13:12.291Z,29.89
2024-05-09T18:15:42.775Z,31.07
2024-05-09T18:18:10.722Z,30.33
2024-05-09T18:20:44.404Z,30.32
2024-05-09T18:23:17.829Z,29.69
2024-05-09T18:25:48.565Z,29.93
2024-05-09T18:28:16.239Z,29.19
2024-05-09T18:30:46.240Z,29.22
2024-05-09T18:33:13.481Z,29.72
2024-05-09T18:35:45.138Z,29.75
2024-05-09T18:38:12.133Z,29.74
2024-05-09T18:40:46.252Z,29.56
2024-05-09T18:43:15.252Z,29.53
2024-05-09T18:45:44.587Z,28.87
2024-05-09T18:48:11.735Z,29.48
2024-05-09T18:50:41.765Z,30.10
2024-05-09T18:53:09.908Z,29.97
2024-05-09T18:55:39.490Z,31.19
2024-05-09T18:58:08.813Z,31.27
2024-05-09T19:00:40.457Z,30.89
2024-05-09T19:03:12.364Z,30.93
2024-05-09T19:05:45.019Z,31.78
2024-05-09T19:08:12.938Z,31.27
2024-05-09T19:10:42.375Z,31.91
2024-05-09T19:13:13.583Z,32.33
2024-05-09T19:15:44.424Z,32.48
2024-05-09T19:18:12.608Z,32.59
2024-05-09T19:20:42.387Z,33.01
2024-05-09T19:23:10.860Z,31.28
2024-05-09T19:25:40.226Z,32.19
2024-05-09T19:28:07.212Z,31.35
2024-05-09T19:30:42.448Z,31.17
2024-05-09T19:33:12.350Z,32.30
2024-05-09T19:35:42.873Z,32.43
2024-05-09T19:38:10.938Z,32.72
2024-05-09T19:40:40.363Z,32.48
2024-05-09T19:43:07.371Z,32.58
2024-05-09T19:45:39.402Z,32.85
2024-05-09T19:48:07.186Z,33.73
2024-05-09T19:50:42.309Z,34.02
2024-05-09T19:53:11.701Z,34.88
2024-05-09T19:55:41.438Z,35.31
2024-05-09T19:58:08.791Z,34.15
2024-05-09T20:00:43.225Z,33.89
2024-05-09T20:03:11.946Z,34.10
2024-05-09T20:05:41.541Z,34.35
2024-05-09T20:08:08.312Z,34.25
2024-05-09T20:10:37.732Z,33.81
2024-05-09T20:13:06.687Z,34.58
2024-05-09T20:15:37.847Z,34.09
2024-05-09T20:18:10.363Z,33.15
2024-05-09T20:20:41.287Z,33.65
2024-05-09T20:23:13.250Z,32.43
2024-05-09T20:25:40.464Z,33.52
2024-05-09T20:28:10.571Z,34.40
2024-05-09T20:30:37.717Z,34.05
2024-05-09T20:33:10.718Z,34.04
2024-05-09T20:35:37.511Z,33.53
2024-05-09T20:38:07.100Z,32.31
2024-05-09T20:40:37.552Z,33.66
2024-05-09T20:43:08.870Z,32.31
2024-05-09T20:45:36.125Z,31.72
2024-05-09T20:48:05.974Z,31.41
2024-05-09T20:50:39.746Z,31.77
2024-05-09T20:53:13.200Z,31.65
2024-05-09T20:55:41.134Z,31.12
2024-05-09T20:58:10.888Z,33.17
2024-05-09T21:00:41.437Z,31.74
2024-05-09T21:03:14.869Z,32.01
2024-05-09T21:05:46.054Z,32.34
2024-05-09T21:08:15.647Z,31.85
2024-05-09T21:10:42.453Z,31.77
2024-05-09T21:13:11.956Z,31.87
2024-05-09T21:15:38.825Z,30.73
2024-05-09T21:18:08.298Z,32.56
2024-05-09T21:20:35.471Z,32.22
2024-05-09T21:23:07.900Z,31.59
2024-05-09T21:25:34.639Z,31.54
2024-05-09T21:28:04.004Z,31.78
2024-05-09T21:30:38.855Z,31.29
2024-05-09T21:33:13.441Z,31.46
2024-05-09T21:35:41.538Z,31.82
2024-05-09T21:38:13.926Z,32.14
2024-05-09T21:40:40.903Z,31.89
2024-05-09T21:43:10.272Z,31.76
2024-05-09T21:45:37.551Z,31.78
2024-05-09T21:48:08.103Z,31.57
2024-05-09T21:50:40.314Z,31.38
2024-05-09T21:53:14.264Z,31.84
2024-05-09T21:55:41.310Z,32.21
2024-05-09T21:58:10.696Z,32.05
2024-05-09T22:00:39.510Z,32.66
2024-05-09T22:03:10.608Z,33.03
2024-05-09T22:05:39.086Z,33.06
2024-05-09T22:08:09.679Z,32.63
2024-05-09T22:10:39.063Z,32.49
2024-05-09T22:13:09.010Z,33.05
2024-05-09T22:15:37.813Z,32.91
2024-05-09T22:18:09.970Z,33.04
2024-05-09T22:20:43.405Z,33.55
2024-05-09T22:23:13.235Z,33.46
2024-05-09T22:25:42.567Z,33.66
2024-05-09T22:28:11.891Z,33.47
2024-05-09T22:30:40.059Z,33.85
2024-05-09T22:33:11.838Z,33.73
2024-05-09T22:35:39.055Z,33.11
2024-05-09T22:38:08.621Z,33.54
2024-05-09T22:40:46.451Z,33.95
2024-05-09T22:43:24.521Z,34.28
2024-05-09T22:45:52.664Z,34.12
2024-05-09T22:48:23.379Z,34.45
2024-05-09T22:50:50.377Z,34.16
2024-05-09T22:53:19.681Z,34.44
2024-05-09T22:55:46.313Z,34.25
2024-05-09T22:58:15.683Z,34.76
2024-05-09T23:00:45.019Z,34.92
2024-05-09T23:03:15.827Z,34.73
2024-05-09T23:05:42.697Z,34.56
2024-05-09T23:08:12.729Z,34.20
2024-05-09T23:10:39.510Z,34.49
2024-05-09T23:13:09.417Z,35.22
2024-05-09T23:15:36.930Z,34.74
2024-05-09T23:18:09.686Z,35.02
2024-05-09T23:20:39.178Z,35.04
2024-05-09T23:23:11.058Z,35.37
2024-05-09T23:25:39.181Z,35.66
2024-05-09T23:28:08.736Z,34.94
2024-05-09T23:30:39.042Z,35.33
2024-05-09T23:33:14.540Z,34.90
2024-05-09T23:35:42.068Z,35.62
2024-05-09T23:38:11.724Z,36.07
2024-05-09T23:40:40.832Z,35.54
2024-05-09T23:43:12.310Z,35.38
2024-05-09T23:45:40.002Z,35.19
2024-05-09T23:48:12.718Z,35.45
2024-05-09T23:50:40.573Z,35.35
2024-05-09T23:53:11.119Z,36.79
2024-05-09T23:55:38.872Z,36.93
2024-05-09T23:58:08.802Z,36.93
